Time;durP1;ratioP1;P1;durP2;ratioP2;P2;SDS_P1;SDS_P2;PMS_P1;PMS_P2;Temp;Humidity;BMP_temperature;BMP_pressure;BME280_temperature;BME280_humidity;BME280_pressure;Samples;Min_cycle;Max_cycle;Signal;HPM_P1;HPM_P2
2022/01/07 00:01:13;;;;;;;11.18;1.77;;;;;;;3.91;75.43;99328.00;4965684;28;20058;-51
2022/01/07 00:03:40;;;;;;;6.20;0.77;;;;;;;3.86;75.40;99344.16;4962840;28;20483;-51
2022/01/07 00:06:07;;;;;;;6.15;1.00;;;;;;;3.82;75.62;99341.56;4967280;28;20110;-55
2022/01/07 00:08:33;;;;;;;6.30;0.82;;;;;;;3.78;75.62;99337.25;4959178;28;20055;-54
2022/01/07 00:11:00;;;;;;;10.15;0.63;;;;;;;3.74;75.44;99341.44;4963408;28;20607;-54
2022/01/07 00:13:27;;;;;;;3.50;0.80;;;;;;;3.72;75.78;99332.91;4962824;28;20109;-53
2022/01/07 00:15:54;;;;;;;3.85;0.55;;;;;;;3.66;75.73;99345.59;4966711;28;20051;-55
2022/01/07 00:18:22;;;;;;;3.05;0.47;;;;;;;3.67;75.18;99334.50;4963836;28;20050;-48
2022/01/07 00:20:49;;;;;;;2.92;0.70;;;;;;;3.64;75.50;99337.91;4957778;28;20142;-53
2022/01/07 00:23:16;;;;;;;4.80;0.63;;;;;;;3.63;74.86;99343.00;4966122;28;20074;-54
2022/01/07 00:25:43;;;;;;;7.88;1.08;;;;;;;3.62;74.77;99337.03;4965196;28;20047;-51
2022/01/07 00:28:09;;;;;;;7.45;1.38;;;;;;;3.59;75.20;99337.81;4967482;28;20051;-50
2022/01/07 00:30:36;;;;;;;5.18;0.50;;;;;;;3.59;74.55;99336.97;4971170;28;20455;-49
2022/01/07 00:33:05;;;;;;;3.22;0.80;;;;;;;3.55;74.77;99330.94;4961913;28;20519;-47
2022/01/07 00:35:32;;;;;;;3.42;0.50;;;;;;;3.52;74.45;99330.91;4965644;28;20211;-53
2022/01/07 00:37:58;;;;;;;6.60;1.02;;;;;;;3.49;74.70;99330.88;4964287;28;20087;-55
2022/01/07 00:40:26;;;;;;;5.55;0.75;;;;;;;3.46;75.04;99335.94;4966184;28;20529;-48
2022/01/07 00:42:53;;;;;;;5.93;0.82;;;;;;;3.43;75.44;99325.66;4962701;28;20784;-55
2022/01/07 00:45:21;;;;;;;8.73;0.93;;;;;;;3.42;75.44;99331.63;4967462;28;20619;-51
2022/01/07 00:47:49;;;;;;;4.38;1.08;;;;;;;3.38;75.03;99306.81;4965307;28;20106;-55
2022/01/07 00:50:18;;;;;;;3.30;0.57;;;;;;;3.37;75.53;99317.91;4963085;28;20047;-48
2022/01/07 00:52:45;;;;;;;2.05;0.65;;;;;;;3.34;75.51;99324.69;4963116;28;20047;-54
2022/01/07 00:55:12;;;;;;;3.80;0.40;;;;;;;3.32;74.58;99322.94;4964482;28;20074;-53
2022/01/07 00:57:40;;;;;;;5.28;0.82;;;;;;;3.29;75.28;99316.09;4968509;28;20109;-54
2022/01/07 01:00:11;;;;;;;5.32;0.55;;;;;;;3.27;75.31;99315.19;4964242;28;20488;-50
2022/01/07 01:02:37;;;;;;;11.10;1.33;;;;;;;3.24;75.33;99317.69;4963380;28;20078;-53
2022/01/07 01:05:06;;;;;;;2.20;0.75;;;;;;;3.21;74.64;99320.22;4963401;28;20051;-53
2022/01/07 01:07:33;;;;;;;7.43;0.75;;;;;;;3.20;75.33;99316.78;4963257;28;20078;-51
2022/01/07 01:10:01;;;;;;;9.35;0.55;;;;;;;3.16;75.29;99319.28;4964825;28;20105;-55
2022/01/07 01:12:28;;;;;;;6.68;1.08;;;;;;;3.13;75.10;99317.53;4964121;28;20121;-49
2022/01/07 01:14:54;;;;;;;6.47;0.70;;;;;;;3.10;75.30;99311.50;4963813;28;20054;-52
2022/01/07 01:17:21;;;;;;;1.75;0.50;;;;;;;3.07;74.75;99302.94;4961846;28;20046;-58
2022/01/07 01:19:48;;;;;;;5.25;0.57;;;;;;;3.03;75.11;99298.63;4960484;28;20113;-55
2022/01/07 01:22:15;;;;;;;4.07;1.23;;;;;;;2.99;74.85;99299.41;4965946;28;20605;-49
2022/01/07 01:24:42;;;;;;;7.95;1.15;;;;;;;2.97;75.12;99306.19;4960730;28;20384;-54
2022/01/07 01:27:08;;;;;;;5.55;1.23;;;;;;;2.93;75.64;99297.59;4964588;28;20083;-50
2022/01/07 01:29:35;;;;;;;4.35;1.42;;;;;;;2.90;74.46;99294.16;4963527;28;20105;-48
2022/01/07 01:32:03;;;;;;;5.13;0.85;;;;;;;2.89;74.67;99302.63;4960829;28;20062;-51
2022/01/07 01:34:29;;;;;;;7.65;0.65;;;;;;;2.83;74.88;99295.72;4962770;28;20101;-55
2022/01/07 01:36:56;;;;;;;5.90;0.73;;;;;;;2.79;75.28;99297.38;4960321;28;20105;-52
2022/01/07 01:39:23;;;;;;;4.95;1.15;;;;;;;2.75;75.51;99295.63;4963526;28;20431;-56
2022/01/07 01:41:50;;;;;;;2.92;0.90;;;;;;;2.75;75.51;99300.72;4965533;28;20054;-51
2022/01/07 01:44:17;;;;;;;3.40;0.40;;;;;;;2.75;74.37;99310.97;4965200;28;20089;-50
2022/01/07 01:46:43;;;;;;;7.97;0.50;;;;;;;2.74;75.46;99303.25;4964384;28;20109;-50
2022/01/07 01:49:10;;;;;;;6.88;0.98;;;;;;;2.70;74.25;99297.22;4964712;28;20117;-55
2022/01/07 01:51:36;;;;;;;4.65;0.95;;;;;;;2.68;74.51;99294.66;4964330;28;20050;-55
2022/01/07 01:54:04;;;;;;;7.53;0.85;;;;;;;2.65;75.36;99291.16;4962902;28;20105;-56
2022/01/07 01:56:32;;;;;;;5.35;0.30;;;;;;;2.65;75.48;99288.59;4964691;28;20046;-56
2022/01/07 01:58:59;;;;;;;7.47;1.13;;;;;;;2.64;74.89;99281.78;4963900;28;20114;-56
2022/01/07 02:01:26;;;;;;;3.20;0.30;;;;;;;2.63;74.18;99274.94;4961798;28;20093;-51
2022/01/07 02:03:52;;;;;;;1.88;0.43;;;;;;;2.61;74.57;99266.38;4959967;28;20050;-52
2022/01/07 02:06:19;;;;;;;0.77;0.70;;;;;;;2.60;74.09;99259.56;4960892;28;20649;-48
2022/01/07 02:08:47;;;;;;;3.47;0.40;;;;;;;2.59;74.21;99260.38;4963433;28;20148;-55
2022/01/07 02:11:13;;;;;;;5.88;0.73;;;;;;;2.56;74.50;99264.59;4959549;28;20055;-48
2022/01/07 02:13:41;;;;;;;2.83;0.95;;;;;;;2.55;75.04;99273.13;4960581;28;21798;-50
2022/01/07 02:16:07;;;;;;;2.00;0.55;;;;;;;2.54;75.55;99270.53;4963526;28;20470;-53
2022/01/07 02:18:34;;;;;;;8.65;2.03;;;;;;;2.53;75.41;99276.50;4968246;28;20714;-56
2022/01/07 02:21:02;;;;;;;5.82;0.43;;;;;;;2.55;74.73;99267.13;4966410;28;20051;-56
2022/01/07 02:23:28;;;;;;;3.60;0.45;;;;;;;2.57;75.04;99271.44;4966220;28;20097;-55
2022/01/07 02:25:56;;;;;;;2.97;0.50;;;;;;;2.59;75.64;99273.16;4970224;28;20109;-49
2022/01/07 02:28:24;;;;;;;8.00;0.95;;;;;;;2.61;74.72;99271.50;4968848;28;20051;-49
2022/01/07 02:30:51;;;;;;;2.47;0.77;;;;;;;2.64;74.09;99276.66;4969918;28;20046;-51
2022/01/07 02:33:17;;;;;;;6.13;0.82;;;;;;;2.67;74.60;99271.59;4968388;28;20756;-54
2022/01/07 02:35:46;;;;;;;4.03;1.33;;;;;;;2.66;73.90;99275.84;4971685;28;20047;-53
2022/01/07 02:38:15;;;;;;;4.63;0.70;;;;;;;2.68;73.79;99273.31;4965438;28;20070;-56
2022/01/07 02:40:42;;;;;;;6.60;0.68;;;;;;;2.68;74.04;99288.66;4965967;28;20105;-52
2022/01/07 02:43:08;;;;;;;5.18;0.40;;;;;;;2.65;75.13;99293.72;4975696;28;20054;-51
2022/01/07 02:45:35;;;;;;;6.78;0.70;;;;;;;2.61;74.59;99281.72;4968148;28;20070;-50
2022/01/07 02:48:03;;;;;;;2.33;0.75;;;;;;;2.60;74.36;99280.00;4965275;28;20051;-53
2022/01/07 02:50:35;;;;;;;8.43;0.65;;;;;;;2.59;73.67;99288.50;4968180;28;20141;-55
2022/01/07 02:53:04;;;;;;;5.57;2.13;;;;;;;2.53;73.60;99269.66;4965025;28;20059;-53
2022/01/07 02:55:31;;;;;;;4.25;0.98;;;;;;;2.51;74.90;99266.22;4967815;28;20519;-52
2022/01/07 02:57:58;;;;;;;5.35;0.38;;;;;;;2.47;73.90;99268.69;4969694;28;20047;-49
2022/01/07 03:00:28;;;;;;;4.90;0.65;;;;;;;2.43;74.96;99265.22;4967005;28;20054;-53
2022/01/07 03:02:59;;;;;;;6.93;1.05;;;;;;;2.42;74.14;99273.72;4965969;28;20054;-53
2022/01/07 03:05:26;;;;;;;8.95;1.27;;;;;;;2.37;74.25;99262.56;4965170;28;20061;-54
2022/01/07 03:07:53;;;;;;;8.32;0.95;;;;;;;2.35;74.59;99254.00;4966418;28;20388;-56
2022/01/07 03:10:25;;;;;;;2.15;0.88;;;;;;;2.30;73.65;99259.88;4964632;28;20047;-49
2022/01/07 03:12:54;;;;;;;4.85;0.30;;;;;;;2.31;74.58;99261.63;4966453;28;20101;-50
2022/01/07 03:15:22;;;;;;;2.92;0.40;;;;;;;2.27;73.85;99252.16;4969121;28;20058;-51
2022/01/07 03:17:49;;;;;;;5.43;0.40;;;;;;;2.25;74.89;99264.06;4962668;28;20053;-57
2022/01/07 03:20:18;;;;;;;3.80;0.50;;;;;;;2.24;75.07;99262.34;4968285;28;20502;-51
2022/01/07 03:22:46;;;;;;;4.40;0.45;;;;;;;2.20;75.42;99268.25;4964225;28;20057;-56
2022/01/07 03:25:15;;;;;;;5.00;0.40;;;;;;;2.20;74.57;99270.78;4963204;28;20054;-54
2022/01/07 03:27:42;;;;;;;2.40;0.93;;;;;;;2.17;74.78;99260.50;4963910;28;20557;-52
2022/01/07 03:30:11;;;;;;;5.45;0.45;;;;;;;2.15;75.06;99257.91;4964535;28;20035;-54
2022/01/07 03:32:38;;;;;;;12.10;1.25;;;;;;;2.14;75.02;99256.22;4964326;28;20483;-53
2022/01/07 03:35:07;;;;;;;7.65;0.80;;;;;;;2.17;74.31;99250.28;4966652;28;20058;-53
2022/01/07 03:37:34;;;;;;;3.30;0.77;;;;;;;2.12;74.10;99246.75;4962133;28;20097;-52
2022/01/07 03:40:00;;;;;;;3.92;0.75;;;;;;;2.12;75.20;99251.88;4961360;28;20051;-50
2022/01/07 03:42:27;;;;;;;4.03;0.40;;;;;;;2.12;73.64;99262.97;4962705;28;20611;-54
2022/01/07 03:44:53;;;;;;;2.60;0.28;;;;;;;2.13;74.45;99253.63;4965014;28;20046;-49
2022/01/07 03:47:20;;;;;;;5.55;0.55;;;;;;;2.16;73.57;99256.25;4966400;28;20074;-51
2022/01/07 03:49:46;;;;;;;2.10;1.27;;;;;;;2.19;73.83;99263.94;4966278;28;20058;-49
2022/01/07 03:52:13;;;;;;;4.28;0.90;;;;;;;2.21;73.44;99267.41;4964444;28;20055;-56
2022/01/07 03:54:40;;;;;;;3.92;0.90;;;;;;;2.22;73.65;99266.56;4964344;28;20605;-56
2022/01/07 03:57:06;;;;;;;6.30;2.15;;;;;;;2.23;73.57;99267.44;4965369;28;20439;-52
2022/01/07 03:59:33;;;;;;;6.15;0.95;;;;;;;2.24;73.87;99266.59;4960231;28;20081;-53
2022/01/07 04:02:00;;;;;;;5.70;1.23;;;;;;;2.26;73.84;99270.88;4967198;28;20676;-51
2022/01/07 04:04:27;;;;;;;2.60;0.30;;;;;;;2.27;74.83;99267.50;4966623;28;20055;-51
2022/01/07 04:06:53;;;;;;;2.45;0.43;;;;;;;2.30;73.51;99259.88;4965298;28;20105;-53
2022/01/07 04:09:20;;;;;;;4.00;0.22;;;;;;;2.34;74.30;99252.28;4952135;28;20051;-52
2022/01/07 04:11:46;;;;;;;5.45;0.63;;;;;;;2.37;74.05;99253.22;4948304;28;20055;-55
2022/01/07 04:14:13;;;;;;;2.10;0.35;;;;;;;2.37;73.38;99248.09;4943968;28;20051;-53
2022/01/07 04:16:40;;;;;;;5.53;0.47;;;;;;;2.38;73.73;99249.81;4939133;28;20059;-61
2022/01/07 04:19:06;;;;;;;5.75;0.52;;;;;;;2.36;73.66;99240.41;4962522;28;20051;-51
2022/01/07 04:21:33;;;;;;;5.90;0.40;;;;;;;2.35;73.83;99233.53;4963897;28;20570;-52
2022/01/07 04:24:00;;;;;;;2.78;0.45;;;;;;;2.29;73.40;99240.28;4959219;28;20047;-52
2022/01/07 04:26:26;;;;;;;3.42;0.45;;;;;;;2.23;73.27;99235.06;4965277;28;20050;-56
2022/01/07 04:28:53;;;;;;;2.95;0.40;;;;;;;2.23;74.34;99236.75;4960046;28;20086;-53
2022/01/07 04:31:20;;;;;;;5.22;0.80;;;;;;;2.20;73.68;99245.25;4962244;28;20436;-51
2022/01/07 04:33:46;;;;;;;10.02;0.82;;;;;;;2.20;73.98;99242.69;4963655;28;20440;-54
2022/01/07 04:36:13;;;;;;;7.03;0.75;;;;;;;2.20;72.61;99244.38;4962300;28;20046;-52
2022/01/07 04:38:39;;;;;;;5.78;0.45;;;;;;;2.18;72.96;99246.88;4962317;28;20494;-55
2022/01/07 04:41:06;;;;;;;8.25;0.50;;;;;;;2.18;72.91;99241.78;4956430;28;20082;-51
2022/01/07 04:43:33;;;;;;;5.07;0.65;;;;;;;2.14;73.17;99234.91;4961859;28;20054;-58
2022/01/07 04:45:59;;;;;;;1.60;0.20;;;;;;;2.13;73.22;99245.97;4963764;28;20090;-55
2022/01/07 04:48:26;;;;;;;3.40;0.50;;;;;;;2.11;74.63;99240.81;4959118;28;20061;-48
2022/01/07 04:50:53;;;;;;;6.40;1.25;;;;;;;2.09;73.12;99241.63;4961597;28;20476;-52
2022/01/07 04:53:20;;;;;;;4.03;0.60;;;;;;;2.04;72.84;99237.28;4964088;28;20436;-55
2022/01/07 04:55:47;;;;;;;4.25;0.80;;;;;;;2.00;72.95;99226.97;4956821;28;20495;-56
2022/01/07 04:58:14;;;;;;;5.05;0.50;;;;;;;1.95;73.16;99239.66;4960801;28;20061;-54
2022/01/07 05:00:43;;;;;;;1.23;0.47;;;;;;;1.92;73.79;99229.38;4958226;28;20043;-58
2022/01/07 05:03:10;;;;;;;3.05;0.50;;;;;;;1.88;73.50;99232.69;4964055;28;20050;-53
2022/01/07 05:05:37;;;;;;;2.33;0.68;;;;;;;1.85;74.16;99233.50;4960798;28;20070;-55
2022/01/07 05:08:04;;;;;;;2.60;0.43;;;;;;;1.83;73.97;99239.41;4960489;28;20055;-55
2022/01/07 05:10:32;;;;;;;2.03;0.32;;;;;;;1.79;73.88;99236.81;4960405;28;20047;-55
2022/01/07 05:12:58;;;;;;;1.38;0.15;;;;;;;1.76;73.46;99231.63;4958074;28;20047;-54
2022/01/07 05:15:25;;;;;;;3.60;0.35;;;;;;;1.72;74.42;99232.41;4965106;28;20106;-57
2022/01/07 05:17:52;;;;;;;0.93;0.43;;;;;;;1.72;74.82;99237.50;4962114;28;20097;-54
2022/01/07 05:20:20;;;;;;;2.10;0.30;;;;;;;1.70;73.88;99244.28;4962129;28;20054;-54
2022/01/07 05:22:46;;;;;;;6.50;0.47;;;;;;;1.69;73.47;99241.69;4961652;28;20538;-57
2022/01/07 05:25:14;;;;;;;5.43;0.30;;;;;;;1.63;73.69;99242.44;4967025;28;20499;-52
2022/01/07 05:27:40;;;;;;;3.13;0.28;;;;;;;1.62;75.12;99245.81;4962355;28;20483;-54
2022/01/07 05:30:10;;;;;;;3.10;0.30;;;;;;;1.58;74.94;99241.50;4961989;28;20046;-52
2022/01/07 05:32:37;;;;;;;2.55;0.47;;;;;;;1.59;73.72;99250.88;4963259;28;20057;-55
2022/01/07 05:35:04;;;;;;;2.22;0.47;;;;;;;1.56;74.18;99240.59;4961807;28;20055;-52
2022/01/07 05:37:31;;;;;;;3.33;0.30;;;;;;;1.52;73.85;99260.09;4960919;28;20543;-56
2022/01/07 05:39:58;;;;;;;3.97;0.52;;;;;;;1.50;74.42;99257.50;4961207;28;20051;-54
2022/01/07 05:42:26;;;;;;;2.03;0.60;;;;;;;1.49;75.29;99263.41;4958283;28;20050;-49
2022/01/07 05:44:55;;;;;;;3.47;0.35;;;;;;;1.47;74.13;99266.75;4963429;28;20047;-50
2022/01/07 05:47:21;;;;;;;1.23;0.35;;;;;;;1.44;74.52;99262.47;4960566;28;20065;-54
2022/01/07 05:49:48;;;;;;;1.42;0.43;;;;;;;1.43;74.02;99270.97;4957941;28;20082;-53
2022/01/07 05:52:14;;;;;;;4.65;0.65;;;;;;;1.42;75.41;99269.25;4964931;28;20105;-48
2022/01/07 05:54:41;;;;;;;4.20;0.40;;;;;;;1.41;74.93;99264.94;4961208;28;20077;-56
2022/01/07 05:57:07;;;;;;;0.93;0.30;;;;;;;1.38;74.69;99264.88;4964567;28;20101;-56
2022/01/07 05:59:34;;;;;;;2.80;0.40;;;;;;;1.36;75.46;99256.34;4960535;28;20042;-52
2022/01/07 06:02:02;;;;;;;1.10;0.65;;;;;;;1.34;75.24;99260.53;4957822;28;20467;-53
2022/01/07 06:04:29;;;;;;;5.22;0.30;;;;;;;1.33;75.50;99253.72;4962762;28;20050;-49
2022/01/07 06:06:55;;;;;;;6.13;0.43;;;;;;;1.32;74.30;99262.19;4956185;28;20110;-50
2022/01/07 06:09:22;;;;;;;5.20;0.90;;;;;;;1.30;74.28;99253.63;4962154;28;20570;-56
2022/01/07 06:11:48;;;;;;;4.60;0.40;;;;;;;1.28;75.14;99251.91;4962229;28;20051;-53
2022/01/07 06:14:15;;;;;;;4.60;0.75;;;;;;;1.26;74.73;99253.59;4960926;28;20050;-47
2022/01/07 06:16:44;;;;;;;6.38;0.70;;;;;;;1.23;74.26;99248.41;4955581;28;20057;-54
2022/01/07 06:19:11;;;;;;;9.27;0.75;;;;;;;1.23;75.53;99250.09;4961662;28;20057;-50
2022/01/07 06:21:38;;;;;;;3.28;0.50;;;;;;;1.22;74.91;99245.81;4960170;28;20443;-50
2022/01/07 06:24:05;;;;;;;3.60;0.57;;;;;;;1.21;74.20;99244.94;4961872;28;20047;-53
2022/01/07 06:26:32;;;;;;;3.40;0.65;;;;;;;1.20;75.12;99238.13;4959103;28;20054;-55
2022/01/07 06:28:58;;;;;;;2.20;0.28;;;;;;;1.20;74.79;99238.13;4961123;28;20066;-52
2022/01/07 06:31:25;;;;;;;2.60;0.35;;;;;;;1.20;74.42;99248.34;4961252;28;20137;-56
2022/01/07 06:33:52;;;;;;;4.53;0.82;;;;;;;1.21;75.33;99249.22;4962579;28;20047;-53
2022/01/07 06:36:18;;;;;;;2.28;0.70;;;;;;;1.19;75.72;99246.63;4962585;28;20051;-50
2022/01/07 06:38:45;;;;;;;3.75;0.40;;;;;;;1.21;75.93;99239.84;4963227;28;20078;-52
2022/01/07 06:41:11;;;;;;;4.70;0.68;;;;;;;1.21;75.79;99234.75;4961019;28;20054;-54
2022/01/07 06:43:38;;;;;;;4.72;1.13;;;;;;;1.21;75.37;99244.94;4961664;28;20094;-57
2022/01/07 06:46:06;;;;;;;3.80;0.60;;;;;;;1.21;75.89;99247.50;4962844;28;20078;-56
2022/01/07 06:48:32;;;;;;;2.92;0.40;;;;;;;1.20;74.60;99242.38;4964130;28;20069;-49
2022/01/07 06:50:59;;;;;;;5.65;0.50;;;;;;;1.22;74.74;99250.94;4965488;28;20058;-56
2022/01/07 06:53:26;;;;;;;4.45;1.60;;;;;;;1.19;74.47;99251.72;4959943;28;20051;-51
2022/01/07 06:55:56;;;;;;;10.18;2.25;;;;;;;1.18;74.71;99260.19;4961339;28;20053;-51
2022/01/07 06:58:23;;;;;;;3.05;0.88;;;;;;;1.16;75.56;99261.84;4959447;28;20047;-54
2022/01/07 07:00:50;;;;;;;9.73;2.90;;;;;;;1.17;75.41;99252.50;4956937;28;20055;-49
2022/01/07 07:03:17;;;;;;;5.88;1.05;;;;;;;1.18;74.72;99260.19;4962400;28;20046;-57
2022/01/07 07:05:44;;;;;;;4.43;0.85;;;;;;;1.20;75.36;99256.00;4965942;28;20047;-52
2022/01/07 07:08:10;;;;;;;6.55;0.75;;;;;;;1.19;75.14;99261.06;4961556;28;20058;-56
2022/01/07 07:10:37;;;;;;;4.88;1.00;;;;;;;1.18;74.97;99255.09;4960013;28;20058;-56
2022/01/07 07:13:03;;;;;;;1.23;0.65;;;;;;;1.18;75.49;99252.53;4957019;28;20458;-55
2022/01/07 07:15:30;;;;;;;7.18;0.93;;;;;;;1.17;74.71;99253.38;4959323;28;20062;-53
2022/01/07 07:17:57;;;;;;;5.35;1.08;;;;;;;1.18;74.35;99255.09;4957789;28;20085;-55
2022/01/07 07:20:23;;;;;;;5.35;0.88;;;;;;;1.14;74.51;99256.72;4960537;28;20051;-56
2022/01/07 07:22:50;;;;;;;0.90;0.50;;;;;;;1.14;75.43;99258.41;4955838;28;20090;-58
2022/01/07 07:25:17;;;;;;;5.93;1.85;;;;;;;1.12;74.83;99244.75;4961685;28;20635;-57
2022/01/07 07:27:44;;;;;;;4.05;0.52;;;;;;;1.10;74.76;99252.38;4966749;28;20047;-52
2022/01/07 07:30:11;;;;;;;6.05;1.60;;;;;;;1.08;74.23;99250.63;4960612;28;20063;-51
2022/01/07 07:32:38;;;;;;;3.70;0.60;;;;;;;1.07;74.86;99256.53;4964884;28;20109;-51
2022/01/07 07:37:53;;;;;;;10.10;1.02;;;;;;;1.04;75.66;99246.28;4956522;28;20114;-58
2022/01/07 07:40:19;;;;;;;2.88;0.40;;;;;;;1.04;75.09;99249.66;4959887;28;20059;-51
2022/01/07 07:42:46;;;;;;;2.92;0.50;;;;;;;1.04;74.95;99261.59;4964234;28;20688;-58
2022/01/07 07:45:13;;;;;;;11.70;0.70;;;;;;;1.06;74.18;99263.34;4961237;28;20109;-52
2022/01/07 07:47:40;;;;;;;2.58;0.40;;;;;;;1.06;75.09;99260.78;4964653;28;20047;-49
2022/01/07 07:50:13;;;;;;;9.73;0.60;;;;;;;1.07;74.55;99256.53;4959848;28;20053;-55
2022/01/07 07:52:39;;;;;;;8.98;1.45;;;;;;;1.07;74.91;99267.59;4957649;28;20050;-53
2022/01/07 07:55:06;;;;;;;6.82;1.17;;;;;;;1.05;74.59;99268.41;4962125;28;20051;-54
2022/01/07 07:57:33;;;;;;;4.85;0.85;;;;;;;1.07;74.57;99266.72;4958418;28;20117;-54
2022/01/07 07:59:59;;;;;;;2.00;0.43;;;;;;;1.06;75.50;99270.13;4963165;28;20047;-51
2022/01/07 08:02:30;;;;;;;4.65;0.95;;;;;;;1.05;74.23;99270.94;4960440;28;20105;-49
2022/01/07 08:04:58;;;;;;;9.85;2.50;;;;;;;1.05;74.80;99274.38;4959445;28;20118;-55
2022/01/07 08:07:24;;;;;;;3.42;0.55;;;;;;;1.03;74.22;99265.81;4965134;28;20110;-51
2022/01/07 08:09:53;;;;;;;2.60;0.47;;;;;;;1.01;74.81;99263.22;4964144;28;20761;-55
2022/01/07 08:12:26;;;;;;;2.30;0.70;;;;;;;1.02;75.00;99264.09;4959154;28;20084;-51
2022/01/07 08:17:40;;;;;;;16.85;1.63;;;;;;;1.05;75.42;99273.50;4956628;28;20055;-51
2022/01/07 08:20:07;;;;;;;9.73;1.63;;;;;;;1.01;75.12;99273.41;4957431;28;20088;-48
2022/01/07 08:22:34;;;;;;;16.88;2.90;;;;;;;1.06;75.24;99280.31;4959367;28;20093;-54
2022/01/07 08:25:03;;;;;;;13.52;2.08;;;;;;;1.10;75.69;99274.44;4956244;28;20113;-52
2022/01/07 08:27:30;;;;;;;9.07;1.67;;;;;;;1.14;75.27;99282.22;4962246;28;20114;-48
2022/01/07 08:30:10;;;;;;;4.82;0.52;;;;;;;1.21;75.35;99278.13;4957680;28;20533;-49
2022/01/07 08:35:24;;;;;;;7.03;0.88;;;;;;;1.53;75.68;99284.78;4976056;28;20549;-49
2022/01/07 08:37:50;;;;;;;6.97;0.68;;;;;;;1.70;74.80;99287.69;4961990;28;20231;-58
2022/01/07 08:40:17;;;;;;;2.88;0.60;;;;;;;1.80;74.53;99281.94;4965922;28;20109;-50
2022/01/07 08:42:44;;;;;;;3.92;0.70;;;;;;;1.90;74.24;99280.41;4961952;28;20110;-54
2022/01/07 08:45:10;;;;;;;4.45;0.88;;;;;;;2.07;74.04;99274.81;4966772;28;20050;-55
2022/01/07 08:47:37;;;;;;;2.03;0.52;;;;;;;2.42;72.76;99281.38;4956829;28;20113;-51
2022/01/07 08:50:05;;;;;;;6.65;1.17;;;;;;;2.77;73.94;99278.56;4970402;28;20043;-53
2022/01/07 08:52:33;;;;;;;9.15;0.90;;;;;;;3.05;73.03;99286.72;4959605;28;20050;-54
2022/01/07 08:54:59;;;;;;;5.85;1.50;;;;;;;3.32;70.95;99287.09;4955753;28;20129;-52
2022/01/07 08:57:26;;;;;;;5.43;0.82;;;;;;;3.65;70.65;99285.84;4957319;28;20527;-52
2022/01/07 08:59:52;;;;;;;5.25;0.68;;;;;;;4.01;71.04;99288.84;4960503;28;20051;-54
2022/01/07 09:02:19;;;;;;;4.22;0.60;;;;;;;4.25;69.78;99289.97;4956055;28;20055;-49
2022/01/07 09:04:46;;;;;;;3.00;0.95;;;;;;;4.13;69.36;99287.25;4960534;28;20051;-55
2022/01/07 09:07:13;;;;;;;1.10;0.55;;;;;;;4.01;68.59;99283.72;4966254;28;20058;-49
2022/01/07 09:09:40;;;;;;;5.30;1.10;;;;;;;4.21;69.18;99283.94;4963387;28;20894;-57
2022/01/07 09:12:08;;;;;;;9.45;1.30;;;;;;;4.46;69.00;99281.63;4961868;28;20047;-49
2022/01/07 09:14:34;;;;;;;7.13;0.65;;;;;;;4.98;69.15;99271.81;4959551;28;20454;-50
2022/01/07 09:17:01;;;;;;;6.60;1.25;;;;;;;5.49;68.09;99276.41;4962651;28;20062;-56
2022/01/07 09:19:28;;;;;;;3.63;0.82;;;;;;;5.95;66.05;99267.22;4955443;28;20046;-52
2022/01/07 09:21:56;;;;;;;6.32;1.58;;;;;;;6.42;64.47;99261.34;4957972;28;20041;-53
2022/01/07 09:24:26;;;;;;;8.07;1.20;;;;;;;7.00;63.74;99273.41;4954304;28;20106;-58
2022/01/07 09:26:53;;;;;;;5.22;0.80;;;;;;;7.37;62.41;99281.09;4955513;28;20621;-53
2022/01/07 09:29:23;;;;;;;2.95;0.75;;;;;;;7.57;61.23;99291.31;4960699;28;20047;-51
2022/01/07 09:31:51;;;;;;;5.90;1.40;;;;;;;7.93;61.87;99288.63;4964782;28;20054;-55
2022/01/07 09:34:18;;;;;;;11.38;2.25;;;;;;;8.27;61.27;99294.50;4959468;28;20148;-56
2022/01/07 09:36:54;;;;;;;17.20;3.22;;;;;;;8.74;61.00;99293.38;4954267;28;20813;-54
2022/01/07 09:39:21;;;;;;;4.97;1.27;;;;;;;9.22;59.96;99299.84;4960011;28;20697;-58
2022/01/07 09:41:47;;;;;;;7.10;1.58;;;;;;;9.58;58.36;99286.59;4964637;28;20478;-51
2022/01/07 09:44:14;;;;;;;10.65;2.20;;;;;;;9.94;57.30;99300.84;4962483;28;20050;-55
2022/01/07 09:46:43;;;;;;;7.65;2.28;;;;;;;10.34;57.74;99310.66;4963381;28;20055;-53
2022/01/07 09:49:10;;;;;;;8.23;2.00;;;;;;;10.58;55.63;99315.56;4964256;28;20051;-56
2022/01/07 09:51:38;;;;;;;11.68;2.70;;;;;;;11.07;55.92;99318.28;4964185;28;20058;-54
2022/01/07 09:54:06;;;;;;;11.00;3.40;;;;;;;11.44;54.69;99333.19;4961547;28;20125;-51
2022/01/07 09:56:33;;;;;;;6.10;1.25;;;;;;;11.81;53.90;99331.63;4957124;28;20042;-52
2022/01/07 09:59:04;;;;;;;10.13;2.75;;;;;;;12.08;52.87;99326.81;4960257;28;20051;-50
2022/01/07 10:01:54;;;;;;;11.85;3.13;;;;;;;12.47;52.14;99331.22;4958459;28;20046;-50
2022/01/07 10:04:38;;;;;;;2.78;1.20;;;;;;;12.87;49.51;99323.38;4961465;28;20074;-51
2022/01/07 10:07:23;;;;;;;12.27;3.92;;;;;;;13.12;50.11;99328.84;4958180;28;20054;-54
2022/01/07 10:10:05;;;;;;;13.93;4.45;;;;;;;13.29;46.01;99331.00;4960877;28;20779;-54
2022/01/07 10:12:48;;;;;;;13.27;3.70;;;;;;;13.47;47.07;99334.00;4960617;28;20043;-53
2022/01/07 10:15:17;;;;;;;13.77;3.90;;;;;;;13.70;48.41;99332.56;4960527;28;20768;-51
2022/01/07 10:18:04;;;;;;;3.88;1.38;;;;;;;13.84;46.73;99333.06;4965102;28;20047;-54
2022/01/07 10:20:36;;;;;;;7.70;3.17;;;;;;;14.12;46.76;99327.06;4958319;28;20106;-53
2022/01/07 10:23:06;;;;;;;4.85;1.05;;;;;;;14.30;45.88;99340.47;4962700;28;20055;-54
2022/01/07 10:25:36;;;;;;;8.57;1.92;;;;;;;14.24;45.80;99336.28;4957479;28;20114;-54
2022/01/07 10:28:09;;;;;;;6.78;1.85;;;;;;;14.44;46.01;99336.56;4955392;28;20051;-56
2022/01/07 10:30:40;;;;;;;11.05;2.78;;;;;;;14.46;45.05;99345.22;4960520;28;20051;-57
2022/01/07 10:33:16;;;;;;;7.05;1.90;;;;;;;14.46;44.69;99342.59;4961461;28;20137;-51
2022/01/07 10:35:44;;;;;;;8.80;2.53;;;;;;;14.61;45.18;99349.09;4963439;28;20113;-54
2022/01/07 10:38:16;;;;;;;10.80;3.25;;;;;;;14.62;43.60;99346.44;4965745;28;20046;-53
2022/01/07 10:40:43;;;;;;;10.82;2.97;;;;;;;14.59;43.62;99350.91;4959115;28;20125;-59
2022/01/07 10:43:16;;;;;;;12.43;1.95;;;;;;;14.39;43.42;99345.38;4968874;28;20051;-49
2022/01/07 10:45:50;;;;;;;7.90;2.42;;;;;;;14.29;43.44;99349.19;4964652;28;20142;-57
2022/01/07 10:48:19;;;;;;;9.80;2.50;;;;;;;14.05;43.47;99351.56;4965612;28;20138;-54
2022/01/07 10:50:48;;;;;;;4.95;1.50;;;;;;;13.79;43.31;99342.75;4959186;28;20039;-52
2022/01/07 10:53:27;;;;;;;5.85;1.35;;;;;;;13.01;41.93;99352.50;4961695;28;20054;-50
2022/01/07 10:56:09;;;;;;;8.23;1.95;;;;;;;12.29;43.92;99348.88;4963203;28;20054;-56
2022/01/07 10:58:51;;;;;;;7.28;1.95;;;;;;;11.52;44.89;99346.84;4965204;28;20051;-55
2022/01/07 11:01:28;;;;;;;6.28;1.92;;;;;;;11.14;47.16;99357.00;4962283;28;20349;-56
2022/01/07 11:03:58;;;;;;;5.40;1.48;;;;;;;10.88;48.25;99365.19;4958346;28;20047;-56
2022/01/07 11:06:26;;;;;;;;;;;;;;;10.53;47.54;99359.63;4960546;28;20113;-55
2022/01/07 11:08:55;;;;;;;6.60;1.25;;;;;;;10.35;49.11;99360.72;4960691;28;19930;-55
2022/01/07 11:11:24;;;;;;;7.55;1.20;;;;;;;9.99;49.09;99371.47;4966013;28;20059;-54
2022/01/07 11:13:50;;;;;;;5.90;1.38;;;;;;;9.58;49.25;99373.63;4958319;28;20115;-56
2022/01/07 11:16:18;;;;;;;3.42;1.02;;;;;;;9.31;50.00;99379.03;4965013;28;20129;-50
2022/01/07 11:18:47;;;;;;;3.10;1.30;;;;;;;9.15;50.55;99380.88;4958595;28;20102;-59
2022/01/07 11:21:17;;;;;;;4.70;1.08;;;;;;;8.84;51.44;99373.34;4956219;28;20053;-52
2022/01/07 11:23:44;;;;;;;2.97;0.85;;;;;;;8.63;51.80;99375.19;4966777;28;20043;-53
2022/01/07 11:26:13;;;;;;;3.08;0.65;;;;;;;8.36;52.54;99374.44;4967868;28;20109;-56
2022/01/07 11:28:55;;;;;;;2.00;0.73;;;;;;;8.02;51.94;99364.25;4977610;28;20102;-49
2022/01/07 11:31:23;;;;;;;4.30;0.60;;;;;;;7.81;53.73;99371.19;4968424;28;20239;-54
2022/01/07 11:34:25;;;;;;;5.45;1.05;;;;;;;7.52;53.45;99374.66;4965619;28;20565;-57
2022/01/07 11:36:52;;;;;;;2.20;1.35;;;;;;;7.33;54.00;99362.66;4967799;28;20105;-53
2022/01/07 11:39:21;;;;;;;1.73;1.10;;;;;;;7.12;54.55;99354.94;4969112;28;20042;-56
2022/01/07 11:41:55;;;;;;;5.55;0.30;;;;;;;6.93;54.79;99366.06;4966426;28;20055;-53
2022/01/07 11:44:30;;;;;;;4.22;0.85;;;;;;;6.97;54.73;99366.09;4967702;28;20109;-53
2022/01/07 11:47:21;;;;;;;2.58;1.52;;;;;;;7.09;55.79;99366.09;4964342;28;20051;-52
2022/01/07 11:50:01;;;;;;;4.18;0.63;;;;;;;7.07;55.05;99372.97;4962898;28;20062;-52
2022/01/07 11:52:32;;;;;;;3.38;1.02;;;;;;;7.08;55.39;99369.53;4964480;28;20047;-54
2022/01/07 11:55:20;;;;;;;8.32;1.38;;;;;;;6.98;56.16;99378.97;4962569;28;20046;-57